Time;durP1;ratioP1;P1;durP2;ratioP2;P2;SDS_P1;SDS_P2;PMS_P1;PMS_P2;Temp;Humidity;BMP_temperature;BMP_pressure;BME280_temperature;BME280_humidity;BME280_pressure;Samples;Min_cycle;Max_cycle;Signal;HPM_P1;HPM_P2
2023/10/20 00:01:07;;;;;;;11.35;9.13;;;14.80;91.50;;;;;;4981553;28;20039;-64
2023/10/20 00:03:33;;;;;;;11.27;9.35;;;14.80;91.50;;;;;;4981430;28;20060;-64
2023/10/20 00:05:58;;;;;;;12.00;9.50;;;14.80;91.50;;;;;;4984782;28;20129;-63
2023/10/20 00:08:24;;;;;;;13.18;9.90;;;14.80;91.50;;;;;;4984273;28;20038;-64
2023/10/20 00:10:50;;;;;;;11.30;10.00;;;14.80;91.50;;;;;;4983565;28;20409;-63
2023/10/20 00:13:16;;;;;;;10.60;9.38;;;14.70;91.50;;;;;;4984649;28;20026;-64
2023/10/20 00:15:45;;;;;;;11.30;9.70;;;14.70;91.50;;;;;;4985695;28;20414;-62
2023/10/20 00:18:10;;;;;;;13.07;9.80;;;14.70;91.50;;;;;;4986574;28;20049;-63
2023/10/20 00:20:36;;;;;;;11.52;10.20;;;14.70;91.50;;;;;;4985155;28;20049;-62
2023/10/20 00:23:01;;;;;;;11.48;10.30;;;14.70;91.50;;;;;;4985609;28;20050;-64
2023/10/20 00:25:27;;;;;;;12.80;10.73;;;14.70;91.50;;;;;;4986832;28;20453;-64
2023/10/20 00:27:53;;;;;;;12.35;9.80;;;14.70;91.50;;;;;;4985534;28;20260;-63
2023/10/20 00:30:19;;;;;;;12.20;9.77;;;14.70;91.50;;;;;;4985716;28;20050;-63
2023/10/20 00:32:45;;;;;;;10.88;9.77;;;14.70;91.50;;;;;;4985908;28;20172;-64
2023/10/20 00:35:13;;;;;;;15.15;9.45;;;14.60;91.50;;;;;;4987219;28;20120;-63
2023/10/20 00:37:39;;;;;;;12.60;9.50;;;14.60;91.60;;;;;;4986399;28;20056;-62
2023/10/20 00:40:09;;;;;;;10.30;9.27;;;14.60;91.60;;;;;;4983461;28;20034;-63
2023/10/20 00:42:35;;;;;;;11.70;9.60;;;14.60;91.70;;;;;;4986145;28;20026;-63
2023/10/20 00:45:01;;;;;;;12.75;10.30;;;14.60;91.70;;;;;;4983373;28;20034;-63
2023/10/20 00:47:27;;;;;;;11.32;10.13;;;14.60;91.70;;;;;;4983451;28;20044;-64
2023/10/20 00:49:53;;;;;;;11.70;9.75;;;14.60;91.70;;;;;;4983491;28;20406;-65
2023/10/20 00:52:21;;;;;;;12.55;10.40;;;14.60;91.70;;;;;;4986260;28;20125;-64
2023/10/20 00:54:47;;;;;;;15.02;10.35;;;14.60;91.70;;;;;;4988968;28;20041;-65
2023/10/20 00:57:16;;;;;;;13.02;9.43;;;14.50;91.70;;;;;;4989021;28;20120;-64
2023/10/20 00:59:42;;;;;;;12.27;8.90;;;14.50;91.70;;;;;;4989768;28;20169;-64
2023/10/20 01:02:08;;;;;;;10.77;9.57;;;14.50;91.80;;;;;;4988211;28;20533;-64
2023/10/20 01:04:33;;;;;;;12.88;9.70;;;14.50;91.90;;;;;;4987544;28;20037;-65
2023/10/20 01:06:59;;;;;;;13.95;10.02;;;14.50;91.90;;;;;;4989056;28;20035;-65
2023/10/20 01:09:27;;;;;;;12.90;9.90;;;14.40;91.80;;;;;;4989148;28;20045;-64
2023/10/20 01:11:53;;;;;;;10.93;9.50;;;14.50;91.90;;;;;;4986417;28;20517;-64
2023/10/20 01:14:20;;;;;;;13.48;10.40;;;14.50;91.80;;;;;;4982199;28;20030;-64
2023/10/20 01:16:46;;;;;;;12.60;9.93;;;14.50;91.80;;;;;;4981263;28;20170;-66
2023/10/20 01:19:13;;;;;;;14.30;10.48;;;14.40;91.70;;;;;;4983172;28;20035;-64
2023/10/20 01:21:38;;;;;;;12.20;10.95;;;14.40;91.80;;;;;;4984266;28;20656;-64
2023/10/20 01:24:04;;;;;;;14.35;10.75;;;14.40;91.80;;;;;;4986276;28;20045;-64
2023/10/20 01:26:31;;;;;;;13.43;10.57;;;14.40;91.80;;;;;;4984235;28;20038;-64
2023/10/20 01:28:56;;;;;;;13.68;10.82;;;14.40;91.90;;;;;;4983125;28;20502;-64
2023/10/20 01:31:25;;;;;;;13.48;9.98;;;14.40;91.90;;;;;;4984578;28;20520;-64
2023/10/20 01:33:51;;;;;;;12.65;10.85;;;14.40;91.90;;;;;;4984675;28;20414;-63
2023/10/20 01:36:17;;;;;;;12.77;10.93;;;14.40;91.90;;;;;;4979237;28;20076;-64
2023/10/20 01:38:42;;;;;;;15.55;12.00;;;14.40;91.90;;;;;;4984196;28;20034;-64
2023/10/20 01:41:08;;;;;;;14.30;11.30;;;14.40;91.80;;;;;;4983838;28;20053;-64
2023/10/20 01:43:34;;;;;;;15.52;11.55;;;14.40;91.80;;;;;;4983535;28;20435;-63
2023/10/20 01:46:03;;;;;;;16.05;11.93;;;14.40;91.80;;;;;;4984431;28;20209;-64
2023/10/20 01:48:30;;;;;;;12.57;11.23;;;14.40;91.90;;;;;;4983594;28;20034;-64
2023/10/20 01:50:56;;;;;;;12.65;10.85;;;14.40;91.80;;;;;;4978755;28;20042;-64
2023/10/20 01:53:22;;;;;;;11.68;10.25;;;14.40;91.80;;;;;;4980223;28;20038;-64
2023/10/20 01:55:51;;;;;;;13.80;11.45;;;14.40;91.80;;;;;;4982716;28;20156;-64
2023/10/20 01:58:18;;;;;;;12.90;11.50;;;14.40;91.80;;;;;;4983598;28;20133;-64
2023/10/20 02:00:44;;;;;;;11.90;10.65;;;14.30;91.80;;;;;;4982067;28;20109;-65
2023/10/20 02:03:10;;;;;;;12.35;11.15;;;14.40;91.90;;;;;;4983595;28;20034;-64
2023/10/20 02:05:36;;;;;;;12.20;10.85;;;14.30;91.90;;;;;;4985900;28;20104;-64
2023/10/20 02:08:02;;;;;;;12.93;11.05;;;14.30;92.00;;;;;;4984282;28;20031;-64
2023/10/20 02:10:27;;;;;;;13.48;11.98;;;14.30;92.00;;;;;;4983982;28;20038;-64
2023/10/20 02:12:53;;;;;;;22.73;11.90;;;14.30;92.00;;;;;;4988157;28;20049;-64
2023/10/20 02:15:19;;;;;;;20.30;12.00;;;14.30;92.00;;;;;;4987565;28;20042;-64
2023/10/20 02:17:44;;;;;;;14.30;11.60;;;14.30;92.00;;;;;;4988105;28;20034;-64
2023/10/20 02:20:10;;;;;;;14.38;11.90;;;14.30;92.00;;;;;;4987332;28;20085;-63
2023/10/20 02:22:36;;;;;;;13.88;12.10;;;14.30;92.00;;;;;;4987581;28;20030;-63
2023/10/20 02:25:02;;;;;;;15.55;12.25;;;14.30;92.10;;;;;;4987996;28;20050;-63
2023/10/20 02:27:28;;;;;;;15.35;12.02;;;14.30;92.10;;;;;;4988472;28;20031;-64
2023/10/20 02:29:55;;;;;;;12.98;11.68;;;14.30;92.00;;;;;;4987352;28;20034;-64
2023/10/20 02:32:21;;;;;;;13.73;11.68;;;14.30;92.00;;;;;;4987651;28;20044;-63
2023/10/20 02:34:47;;;;;;;13.07;11.77;;;14.30;92.00;;;;;;4987325;28;20046;-64
2023/10/20 02:37:14;;;;;;;15.88;12.05;;;14.30;92.00;;;;;;4988214;28;20038;-65
2023/10/20 02:39:40;;;;;;;14.90;12.00;;;14.40;92.00;;;;;;4987124;28;20490;-64
2023/10/20 02:42:06;;;;;;;15.27;12.10;;;14.30;92.00;;;;;;4986611;28;20049;-64
2023/10/20 02:44:31;;;;;;;14.63;11.75;;;14.40;92.00;;;;;;4986477;28;20036;-65
2023/10/20 02:46:57;;;;;;;14.93;12.38;;;14.40;92.00;;;;;;4987549;28;20568;-64
2023/10/20 02:49:23;;;;;;;13.77;12.25;;;14.40;91.90;;;;;;4987448;28;20507;-64
2023/10/20 02:51:49;;;;;;;15.45;12.85;;;14.40;91.90;;;;;;4986866;28;20096;-64
2023/10/20 02:54:15;;;;;;;14.38;12.85;;;14.40;91.90;;;;;;4987390;28;20038;-65
2023/10/20 02:56:40;;;;;;;14.65;12.40;;;14.40;91.90;;;;;;4986873;28;20034;-65
2023/10/20 02:59:06;;;;;;;16.73;13.50;;;14.40;92.30;;;;;;4987611;28;20390;-62
2023/10/20 03:01:32;;;;;;;14.07;11.63;;;14.30;91.90;;;;;;4986285;28;20506;-63
2023/10/20 03:03:57;;;;;;;13.70;12.30;;;14.30;91.90;;;;;;4987168;28;20046;-64
2023/10/20 03:06:23;;;;;;;15.18;11.90;;;14.30;91.90;;;;;;4987459;28;20035;-64
2023/10/20 03:08:50;;;;;;;14.60;13.02;;;14.30;91.90;;;;;;4985066;28;20085;-64
2023/10/20 03:11:15;;;;;;;15.82;12.75;;;14.30;91.90;;;;;;4985179;28;20035;-63
2023/10/20 03:13:41;;;;;;;14.25;12.75;;;14.30;91.90;;;;;;4983237;28;20033;-64
2023/10/20 03:16:07;;;;;;;14.35;12.07;;;14.30;92.00;;;;;;4984993;28;20035;-64
2023/10/20 03:18:32;;;;;;;18.02;12.93;;;14.30;92.00;;;;;;4986838;28;20026;-63
2023/10/20 03:21:00;;;;;;;17.42;12.57;;;14.20;92.00;;;;;;4985582;28;20045;-64
2023/10/20 03:23:26;;;;;;;14.98;12.95;;;14.30;92.40;;;;;;4987078;28;20046;-64
2023/10/20 03:25:51;;;;;;;14.52;12.50;;;14.30;92.00;;;;;;4986039;28;20046;-64
2023/10/20 03:28:17;;;;;;;15.55;13.38;;;14.30;92.00;;;;;;4986263;28;20121;-63
2023/10/20 03:30:43;;;;;;;15.70;13.57;;;14.30;92.00;;;;;;4986403;28;20069;-64
2023/10/20 03:33:13;;;;;;;17.20;14.32;;;14.30;92.00;;;;;;4986511;28;20068;-64
2023/10/20 03:35:40;;;;;;;18.25;15.35;;;14.20;91.90;;;;;;4986583;28;20157;-64
2023/10/20 03:38:06;;;;;;;18.38;14.80;;;14.20;92.10;;;;;;4985667;28;20041;-65
2023/10/20 03:40:36;;;;;;;21.45;17.15;;;14.20;92.00;;;;;;4985616;28;20081;-64
2023/10/20 03:43:08;;;;;;;18.00;15.38;;;14.20;92.10;;;;;;4985114;28;20034;-64
2023/10/20 03:45:52;;;;;;;17.40;14.45;;;14.20;92.10;;;;;;4986689;28;20031;-65
2023/10/20 03:48:19;;;;;;;18.55;15.63;;;14.20;92.20;;;;;;4986245;28;20034;-64
2023/10/20 03:50:47;;;;;;;18.67;15.48;;;14.10;92.10;;;;;;4985900;28;20632;-64
2023/10/20 03:53:23;;;;;;;19.65;15.68;;;14.10;92.10;;;;;;4985661;28;20528;-64
2023/10/20 03:56:02;;;;;;;19.77;15.48;;;14.10;92.10;;;;;;4987113;28;20046;-64
2023/10/20 03:58:29;;;;;;;20.80;15.75;;;14.10;92.20;;;;;;4985816;28;20049;-63
2023/10/20 04:01:01;;;;;;;22.83;15.98;;;14.10;92.10;;;;;;4986788;28;20042;-64
2023/10/20 04:03:27;;;;;;;18.17;15.65;;;14.10;92.10;;;;;;4986147;28;20045;-64
2023/10/20 04:05:53;;;;;;;17.65;15.40;;;14.10;92.10;;;;;;4986505;28;20069;-64
2023/10/20 04:08:19;;;;;;;18.10;15.10;;;14.20;92.10;;;;;;4986086;28;20038;-64
2023/10/20 04:10:45;;;;;;;18.15;15.65;;;14.10;92.10;;;;;;4986002;28;20094;-64
2023/10/20 04:13:12;;;;;;;19.52;16.00;;;14.10;92.10;;;;;;4986307;28;20049;-65
2023/10/20 04:15:42;;;;;;;19.15;16.45;;;14.10;92.10;;;;;;4985111;28;20545;-64
2023/10/20 04:18:08;;;;;;;22.23;17.50;;;14.10;92.10;;;;;;4984153;28;20065;-64
2023/10/20 04:20:41;;;;;;;24.40;17.25;;;14.10;92.10;;;;;;4982019;28;20073;-64
2023/10/20 04:23:07;;;;;;;21.38;17.40;;;14.10;92.10;;;;;;4986568;28;20150;-64
2023/10/20 04:25:39;;;;;;;21.23;16.92;;;14.10;92.10;;;;;;4986372;28;20231;-64
2023/10/20 04:49:58;;;;;;;23.67;18.35;;;14.00;92.00;;;;;;4985488;28;20038;-64
2023/10/20 05:02:46;;;;;;;24.23;18.27;;;14.00;92.00;;;;;;4983776;28;20728;-63
2023/10/20 05:07:52;;;;;;;25.60;18.80;;;13.90;92.00;;;;;;4980629;28;20065;-64
2023/10/20 05:10:21;;;;;;;22.83;18.05;;;13.90;92.00;;;;;;4982415;28;20042;-64
2023/10/20 05:12:47;;;;;;;24.40;18.20;;;13.90;92.00;;;;;;4985118;28;20081;-65
2023/10/20 05:15:13;;;;;;;23.88;19.50;;;13.90;92.00;;;;;;4986501;28;20038;-64
2023/10/20 05:17:40;;;;;;;24.15;19.02;;;13.90;92.00;;;;;;4987259;28;20066;-65
2023/10/20 05:20:09;;;;;;;21.65;17.65;;;13.90;92.00;;;;;;4986916;28;20460;-64
2023/10/20 05:22:35;;;;;;;24.52;19.33;;;13.80;92.00;;;;;;4985414;28;20087;-64
2023/10/20 05:25:02;;;;;;;23.63;18.83;;;13.90;92.10;;;;;;4985708;28;20042;-64
2023/10/20 05:27:28;;;;;;;23.23;18.58;;;13.80;92.00;;;;;;4985512;28;20038;-64
2023/10/20 05:29:53;;;;;;;23.58;19.23;;;13.80;92.00;;;;;;4985685;28;20714;-64
2023/10/20 05:32:19;;;;;;;24.48;18.77;;;13.90;92.00;;;;;;4984495;28;20031;-64
2023/10/20 05:34:44;;;;;;;23.52;18.48;;;13.80;92.00;;;;;;4985055;28;20612;-65
2023/10/20 05:37:10;;;;;;;27.33;18.90;;;13.80;92.00;;;;;;4985519;28;20037;-65
2023/10/20 05:39:36;;;;;;;23.70;18.65;;;13.90;92.10;;;;;;4984747;28;20038;-64
2023/10/20 05:42:04;;;;;;;22.58;19.10;;;13.80;92.00;;;;;;4985622;28;20058;-64
2023/10/20 05:44:33;;;;;;;24.67;19.25;;;13.80;92.00;;;;;;4984500;28;20034;-62
2023/10/20 05:46:59;;;;;;;21.85;18.23;;;13.80;92.00;;;;;;4983038;28;20030;-64
2023/10/20 05:49:26;;;;;;;24.92;18.67;;;13.80;92.00;;;;;;4985390;28;20159;-64
2023/10/20 05:51:51;;;;;;;22.00;18.15;;;13.80;92.00;;;;;;4985713;28;20040;-64
2023/10/20 05:54:18;;;;;;;25.85;18.70;;;13.80;92.00;;;;;;4983848;28;20463;-64
2023/10/20 05:56:44;;;;;;;22.70;18.05;;;13.80;92.00;;;;;;4984115;28;20125;-63
2023/10/20 05:59:09;;;;;;;22.98;17.92;;;13.80;92.00;;;;;;4985607;28;20041;-64
2023/10/20 06:01:35;;;;;;;23.35;19.38;;;13.80;92.00;;;;;;4985250;28;20038;-64
2023/10/20 06:04:01;;;;;;;23.77;18.70;;;13.80;92.00;;;;;;4984760;28;20041;-64
2023/10/20 06:06:26;;;;;;;24.67;19.58;;;13.80;92.00;;;;;;4985519;28;20041;-63
2023/10/20 06:08:52;;;;;;;27.23;19.85;;;13.80;92.00;;;;;;4983554;28;20046;-64
2023/10/20 06:11:18;;;;;;;24.05;19.00;;;13.80;92.00;;;;;;4984776;28;20113;-63
2023/10/20 06:13:43;;;;;;;24.10;18.35;;;13.80;92.00;;;;;;4985753;28;20030;-63
2023/10/20 06:16:10;;;;;;;24.35;18.95;;;13.80;92.00;;;;;;4985274;28;20034;-64
2023/10/20 06:18:37;;;;;;;31.08;19.20;;;13.80;92.00;;;;;;4984544;28;20043;-64
2023/10/20 06:21:10;;;;;;;24.25;19.08;;;13.80;92.00;;;;;;4985051;28;20102;-64
2023/10/20 06:23:36;;;;;;;22.48;18.55;;;13.80;92.00;;;;;;4983932;28;20041;-64
2023/10/20 06:26:01;;;;;;;22.88;18.23;;;13.90;92.00;;;;;;4985709;28;20042;-63
2023/10/20 06:28:27;;;;;;;22.42;17.90;;;13.80;92.00;;;;;;4984470;28;20215;-64
2023/10/20 06:30:53;;;;;;;23.20;18.48;;;13.80;92.00;;;;;;4985429;28;20046;-63
2023/10/20 06:33:19;;;;;;;23.35;17.83;;;13.90;92.10;;;;;;4985383;28;20418;-64
2023/10/20 06:35:52;;;;;;;22.30;18.65;;;13.90;92.00;;;;;;4985437;28;20046;-64
2023/10/20 06:40:52;;;;;;;22.65;18.77;;;13.80;91.90;;;;;;4983742;28;20522;-64
2023/10/20 06:43:19;;;;;;;22.90;18.17;;;13.80;91.90;;;;;;4983876;28;20389;-64
2023/10/20 06:45:45;;;;;;;25.52;19.25;;;13.90;92.00;;;;;;4984838;28;20121;-64
2023/10/20 06:48:11;;;;;;;24.30;19.60;;;13.80;91.90;;;;;;4984026;28;20042;-64
2023/10/20 06:50:36;;;;;;;22.50;18.45;;;13.80;91.90;;;;;;4984471;28;20037;-64
2023/10/20 06:53:02;;;;;;;23.88;18.75;;;13.80;91.90;;;;;;4977465;28;20045;-64
2023/10/20 06:55:28;;;;;;;22.67;18.58;;;13.80;91.90;;;;;;4984987;28;20565;-62
2023/10/20 06:57:53;;;;;;;24.90;18.75;;;13.80;91.90;;;;;;4984832;28;20101;-64
2023/10/20 07:00:21;;;;;;;23.50;18.83;;;13.80;92.00;;;;;;4984486;28;20034;-63
2023/10/20 07:02:48;;;;;;;26.30;19.30;;;13.80;92.00;;;;;;4983499;28;20134;-64
2023/10/20 07:05:14;;;;;;;22.67;18.75;;;13.80;91.90;;;;;;4983581;28;20105;-63
2023/10/20 07:07:40;;;;;;;24.25;19.02;;;13.80;91.90;;;;;;4985028;28;20286;-64
2023/10/20 07:10:10;;;;;;;24.63;18.65;;;13.80;91.90;;;;;;4983483;28;20133;-64
2023/10/20 07:12:36;;;;;;;22.38;18.13;;;13.80;91.90;;;;;;4980503;28;20454;-62
2023/10/20 07:15:02;;;;;;;23.25;19.10;;;13.90;91.90;;;;;;4983551;28;20096;-64
2023/10/20 07:17:28;;;;;;;24.45;19.02;;;13.80;91.90;;;;;;4976684;28;20487;-63
2023/10/20 07:19:54;;;;;;;23.20;18.75;;;13.90;91.90;;;;;;4985657;28;20038;-63
2023/10/20 07:22:20;;;;;;;23.92;19.08;;;13.90;91.90;;;;;;4984208;28;20046;-64
2023/10/20 07:24:47;;;;;;;22.75;18.83;;;13.90;91.90;;;;;;4980327;28;20513;-63
2023/10/20 07:27:12;;;;;;;24.45;18.77;;;13.90;91.80;;;;;;4984926;28;20077;-64
2023/10/20 07:29:38;;;;;;;26.42;19.30;;;13.90;91.80;;;;;;4984145;28;20041;-63
2023/10/20 07:32:04;;;;;;;25.45;19.02;;;13.90;91.80;;;;;;4984653;28;20430;-64
2023/10/20 07:34:31;;;;;;;25.30;19.27;;;13.90;91.80;;;;;;4983210;28;20395;-64
2023/10/20 07:36:57;;;;;;;23.05;18.60;;;13.90;91.80;;;;;;4985524;28;20133;-64
2023/10/20 07:39:22;;;;;;;22.85;17.85;;;13.90;91.80;;;;;;4984829;28;20118;-64
2023/10/20 07:41:48;;;;;;;22.50;17.83;;;13.90;91.90;;;;;;4982780;28;20052;-64
2023/10/20 07:44:15;;;;;;;23.90;19.38;;;13.90;91.90;;;;;;4985174;28;20047;-62
2023/10/20 07:46:42;;;;;;;23.83;18.85;;;13.90;92.30;;;;;;4984876;28;20047;-63
2023/10/20 07:49:11;;;;;;;23.63;18.27;;;14.00;91.90;;;;;;4986261;28;20030;-64
2023/10/20 07:51:39;;;;;;;23.65;18.60;;;14.00;91.90;;;;;;4988005;28;20113;-64
2023/10/20 07:54:07;;;;;;;24.38;19.20;;;14.00;91.90;;;;;;4987086;28;20038;-64
2023/10/20 07:56:32;;;;;;;22.58;18.38;;;14.00;91.80;;;;;;4987519;28;20034;-62
2023/10/20 07:58:58;;;;;;;24.42;19.90;;;14.00;91.80;;;;;;4986731;28;20391;-63
2023/10/20 08:01:24;;;;;;;24.73;20.08;;;14.10;91.80;;;;;;4984152;28;20096;-63
2023/10/20 08:03:50;;;;;;;24.30;20.00;;;14.10;91.80;;;;;;4987059;28;20046;-64
2023/10/20 08:06:15;;;;;;;26.30;20.50;;;14.10;91.80;;;;;;4985716;28;20064;-64
2023/10/20 08:08:41;;;;;;;24.83;20.52;;;14.10;91.80;;;;;;4986557;28;20121;-63
2023/10/20 08:11:07;;;;;;;26.42;20.38;;;14.10;91.80;;;;;;4983992;28;20525;-63
2023/10/20 08:13:33;;;;;;;29.42;20.35;;;14.10;91.80;;;;;;4988034;28;20046;-64
2023/10/20 08:16:06;;;;;;;23.77;20.40;;;14.10;91.90;;;;;;4988743;28;20616;-64
2023/10/20 08:18:33;;;;;;;26.92;20.73;;;14.10;92.00;;;;;;4985490;28;21682;-63
2023/10/20 08:21:17;;;;;;;26.73;21.20;;;14.10;91.90;;;;;;4987616;28;20053;-64
2023/10/20 08:23:43;;;;;;;26.40;21.10;;;14.20;91.90;;;;;;4987696;28;20505;-63
2023/10/20 08:26:15;;;;;;;28.27;20.92;;;14.20;91.90;;;;;;4985495;28;20046;-64
2023/10/20 08:28:41;;;;;;;27.83;21.38;;;14.20;91.70;;;;;;4986675;28;20042;-64
2023/10/20 08:31:09;;;;;;;26.45;20.52;;;14.20;91.70;;;;;;4989527;28;20492;-64
2023/10/20 08:33:35;;;;;;;28.25;21.83;;;14.20;91.80;;;;;;4988826;28;20387;-63
2023/10/20 08:36:15;;;;;;;26.80;20.17;;;14.20;91.70;;;;;;4989253;28;20650;-63
2023/10/20 08:38:46;;;;;;;26.40;20.67;;;14.20;91.70;;;;;;4992462;28;20544;-64
2023/10/20 08:41:13;;;;;;;28.08;21.58;;;14.20;91.70;;;;;;4991000;28;20138;-64
2023/10/20 08:43:41;;;;;;;25.13;20.45;;;14.20;91.70;;;;;;4992659;28;20038;-63
2023/10/20 08:46:09;;;;;;;27.70;22.50;;;14.20;91.80;;;;;;4993379;28;20410;-63
2023/10/20 08:48:39;;;;;;;26.92;20.60;;;14.30;91.80;;;;;;4991442;28;20109;-64
2023/10/20 08:51:06;;;;;;;28.65;21.25;;;14.30;91.80;;;;;;4990500;28;20428;-64
2023/10/20 08:53:34;;;;;;;25.48;21.08;;;14.30;91.80;;;;;;4988835;28;20113;-63
2023/10/20 08:56:01;;;;;;;28.10;21.83;;;14.30;91.80;;;;;;4989304;28;20549;-63
2023/10/20 08:58:29;;;;;;;27.52;21.67;;;14.40;91.80;;;;;;4988224;28;20418;-63
2023/10/20 09:00:56;;;;;;;29.45;22.05;;;14.40;91.80;;;;;;4988428;28;20053;-63
2023/10/20 09:03:22;;;;;;;25.55;20.60;;;14.40;91.70;;;;;;4987723;28;20107;-64
2023/10/20 09:05:48;;;;;;;28.05;21.77;;;14.40;91.70;;;;;;4988106;28;20526;-63
2023/10/20 09:08:14;;;;;;;29.77;22.48;;;14.40;91.70;;;;;;4987731;28;20473;-63
2023/10/20 09:10:45;;;;;;;29.60;22.10;;;14.40;91.70;;;;;;4986708;28;20037;-63
2023/10/20 09:13:11;;;;;;;26.15;21.52;;;14.40;91.60;;;;;;4988632;28;20033;-64
2023/10/20 09:15:37;;;;;;;28.92;22.35;;;14.40;91.60;;;;;;4987894;28;20314;-64
2023/10/20 09:18:08;;;;;;;29.80;23.15;;;14.50;91.70;;;;;;4987448;28;20623;-63
2023/10/20 09:20:33;;;;;;;28.92;22.52;;;14.50;91.70;;;;;;4987445;28;20042;-64
2023/10/20 09:22:59;;;;;;;28.88;23.15;;;14.50;91.60;;;;;;4988431;28;20438;-63
2023/10/20 09:25:26;;;;;;;29.50;23.98;;;14.50;91.60;;;;;;4987926;28;20498;-63
2023/10/20 09:27:52;;;;;;;29.55;23.45;;;14.50;91.50;;;;;;4987585;28;20045;-63
2023/10/20 09:30:18;;;;;;;28.40;22.67;;;14.50;91.60;;;;;;4988418;28;20042;-63
2023/10/20 09:32:44;;;;;;;31.80;23.83;;;14.50;91.60;;;;;;4988104;28;20044;-63
2023/10/20 09:35:10;;;;;;;28.92;23.67;;;14.50;91.70;;;;;;4988198;28;20049;-64
2023/10/20 09:37:36;;;;;;;32.10;23.50;;;14.60;91.70;;;;;;4987724;28;20536;-64
2023/10/20 09:40:06;;;;;;;31.75;23.77;;;14.60;91.70;;;;;;4986528;28;20046;-62
2023/10/20 09:42:54;;;;;;;30.63;24.25;;;14.60;91.80;;;;;;4985769;28;20470;-63
2023/10/20 09:45:28;;;;;;;31.50;23.33;;;14.60;91.90;;;;;;4987567;28;20230;-62
2023/10/20 09:48:00;;;;;;;31.30;23.85;;;14.70;91.90;;;;;;4987988;28;20513;-63
2023/10/20 09:50:26;;;;;;;27.95;22.13;;;14.70;91.80;;;;;;4987452;28;20529;-63
2023/10/20 09:52:52;;;;;;;29.20;23.23;;;14.70;91.70;;;;;;4986304;28;20042;-62
2023/10/20 09:55:19;;;;;;;28.50;22.58;;;14.70;91.70;;;;;;4986777;28;20572;-63
2023/10/20 09:57:47;;;;;;;31.33;23.70;;;14.80;91.60;;;;;;4987535;28;20073;-63
2023/10/20 10:00:13;;;;;;;32.00;23.98;;;14.80;91.70;;;;;;4986944;28;20077;-64
2023/10/20 10:02:38;;;;;;;28.85;23.27;;;14.80;91.70;;;;;;4985785;28;20089;-63
2023/10/20 10:05:09;;;;;;;32.83;24.27;;;14.80;91.70;;;;;;4984672;28;20027;-63
2023/10/20 10:07:35;;;;;;;27.17;23.23;;;14.90;91.90;;;;;;4986315;28;20077;-64
2023/10/20 10:10:02;;;;;;;27.75;21.65;;;14.90;91.90;;;;;;4985011;28;20038;-63
2023/10/20 10:12:29;;;;;;;30.08;22.90;;;15.00;92.00;;;;;;4985757;28;20055;-64
2023/10/20 10:15:12;;;;;;;30.20;22.00;;;15.00;92.00;;;;;;4986641;28;20039;-63
2023/10/20 10:17:48;;;;;;;25.90;20.55;;;15.10;92.10;;;;;;4986935;28;20104;-64
2023/10/20 10:20:24;;;;;;;24.70;19.27;;;15.20;92.20;;;;;;4987493;28;20076;-63
2023/10/20 10:23:27;;;;;;;21.95;18.17;;;15.30;92.50;;;;;;4986384;28;20502;-64
2023/10/20 10:25:53;;;;;;;22.75;16.75;;;15.40;92.60;;;;;;4974150;28;20113;-63
2023/10/20 10:28:20;;;;;;;18.88;15.93;;;15.50;92.50;;;;;;4986928;28;20353;-63
2023/10/20 10:30:51;;;;;;;15.98;14.23;;;15.70;92.50;;;;;;4985475;28;20538;-63
2023/10/20 10:33:21;;;;;;;15.32;13.60;;;15.80;92.10;;;;;;4986286;28;20390;-63
2023/10/20 10:35:47;;;;;;;14.98;12.85;;;15.90;91.90;;;;;;4985808;28;20122;-64
2023/10/20 10:38:23;;;;;;;15.38;13.52;;;16.10;91.80;;;;;;4986488;28;20135;-63
2023/10/20 10:40:51;;;;;;;16.42;13.75;;;16.10;91.50;;;;;;4986834;28;20046;-62
2023/10/20 10:43:18;;;;;;;16.73;12.88;;;16.20;91.50;;;;;;4985976;28;20123;-64
2023/10/20 10:45:44;;;;;;;14.43;12.32;;;16.30;91.50;;;;;;4984996;28;20042;-64
2023/10/20 10:48:12;;;;;;;16.13;11.18;;;16.50;91.40;;;;;;4982560;28;20034;-64
2023/10/20 10:50:42;;;;;;;11.27;9.98;;;16.50;91.30;;;;;;4984797;28;20038;-64
2023/10/20 10:53:10;;;;;;;10.60;9.40;;;16.60;91.10;;;;;;4985181;28;20661;-64
2023/10/20 10:55:36;;;;;;;11.00;8.93;;;16.70;91.00;;;;;;4985359;28;20093;-63
2023/10/20 10:58:13;;;;;;;9.32;8.30;;;16.80;91.00;;;;;;4986103;28;20088;-62
2023/10/20 11:00:40;;;;;;;7.55;6.65;;;16.90;90.60;;;;;;4984200;28;20081;-63
2023/10/20 11:03:07;;;;;;;7.22;6.15;;;17.00;90.60;;;;;;4985748;28;20038;-63
2023/10/20 11:05:33;;;;;;;6.30;5.70;;;17.00;90.50;;;;;;4985773;28;20065;-64
2023/10/20 11:08:02;;;;;;;6.32;5.72;;;17.10;90.40;;;;;;4984638;28;20038;-63
2023/10/20 11:10:36;;;;;;;11.35;5.43;;;17.20;90.30;;;;;;4985172;28;20521;-64
2023/10/20 11:13:10;;;;;;;5.40;4.68;;;17.30;90.20;;;;;;4983846;28;20066;-63
2023/10/20 11:15:37;;;;;;;6.53;5.38;;;17.40;90.00;;;;;;4984062;28;20108;-63
2023/10/20 11:18:05;;;;;;;5.05;4.55;;;17.40;90.10;;;;;;4985135;28;20041;-63
2023/10/20 11:20:41;;;;;;;7.63;4.80;;;17.50;90.00;;;;;;4983948;28;20046;-64
2023/10/20 11:23:08;;;;;;;8.45;4.90;;;17.50;89.20;;;;;;4985423;28;20200;-63
2023/10/20 11:25:36;;;;;;;7.93;4.55;;;17.60;89.60;;;;;;4984976;28;20053;-64
2023/10/20 11:28:05;;;;;;;5.15;4.05;;;17.60;89.50;;;;;;4985951;28;20112;-64
2023/10/20 11:30:34;;;;;;;5.90;4.20;;;17.70;89.30;;;;;;4983732;28;20050;-64
2023/10/20 11:33:01;;;;;;;3.95;3.42;;;17.80;89.20;;;;;;4984803;28;20042;-63
2023/10/20 11:35:27;;;;;;;3.90;3.60;;;17.80;89.00;;;;;;4985012;28;20038;-64
2023/10/20 11:37:57;;;;;;;3.40;2.53;;;17.90;89.00;;;;;;4983976;28;20320;-63
2023/10/20 11:40:23;;;;;;;2.42;2.17;;;18.00;88.50;;;;;;4984629;28;20038;-64
2023/10/20 11:42:49;;;;;;;1.70;1.60;;;18.10;88.40;;;;;;4984522;28;20486;-63
2023/10/20 11:45:15;;;;;;;2.70;1.38;;;18.10;88.20;;;;;;4984480;28;20038;-63
2023/10/20 11:47:41;;;;;;;1.42;1.30;;;18.20;87.80;;;;;;4984027;28;20452;-61
2023/10/20 11:50:09;;;;;;;1.83;1.00;;;18.30;87.40;;;;;;4984613;28;20084;-63
2023/10/20 11:52:38;;;;;;;0.95;0.90;;;18.40;87.10;;;;;;4983741;28;20039;-63
2023/10/20 11:55:05;;;;;;;0.73;0.68;;;18.40;86.00;;;;;;4984305;28;20042;-64
2023/10/20 11:57:31;;;;;;;0.50;0.50;;;18.50;86.50;;;;;;4984717;28;20066;-64
2023/10/20 11:59:56;;;;;;;1.85;0.55;;;18.50;86.30;;;;;;4983429;28;20085;-63
2023/10/20 12:02:23;;;;;;;2.75;0.63;;;18.60;85.90;;;;;;4987848;28;20038;-64
2023/10/20 12:04:48;;;;;;;0.45;0.45;;;18.60;85.60;;;;;;4990983;28;20126;-64
2023/10/20 12:07:14;;;;;;;0.50;0.50;;;18.70;85.20;;;;;;4991272;28;20121;-64
2023/10/20 12:09:39;;;;;;;1.25;0.50;;;18.70;85.00;;;;;;4991136;28;20128;-64
2023/10/20 12:12:06;;;;;;;0.60;0.45;;;18.70;85.00;;;;;;4990153;28;20118;-63
2023/10/20 12:14:32;;;;;;;0.88;0.60;;;18.70;84.70;;;;;;4988911;28;20069;-65
2023/10/20 12:16:57;;;;;;;1.05;0.60;;;18.80;84.60;;;;;;4987698;28;20057;-63
2023/10/20 12:19:23;;;;;;;1.13;0.60;;;18.70;84.20;;;;;;4990417;28;20042;-64
2023/10/20 12:21:49;;;;;;;0.43;0.35;;;18.70;84.30;;;;;;4990071;28;20046;-63
2023/10/20 12:24:15;;;;;;;0.50;0.50;;;18.70;83.90;;;;;;4990767;28;20572;-64
2023/10/20 12:26:41;;;;;;;1.17;0.50;;;18.70;83.70;;;;;;4991257;28;20049;-63
2023/10/20 12:29:06;;;;;;;0.35;0.35;;;18.70;83.60;;;;;;4989880;28;20038;-64
2023/10/20 12:31:32;;;;;;;0.65;0.40;;;18.60;83.80;;;;;;4991439;28;20506;-63
2023/10/20 12:33:58;;;;;;;0.93;0.40;;;18.60;84.60;;;;;;4991546;28;20049;-63
2023/10/20 12:36:26;;;;;;;0.50;0.43;;;18.60;84.00;;;;;;4991409;28;20469;-64
2023/10/20 12:38:51;;;;;;;0.70;0.50;;;18.60;83.70;;;;;;4990152;28;20034;-63
2023/10/20 12:41:17;;;;;;;1.20;0.40;;;18.60;83.90;;;;;;4990564;28;20042;-64
2023/10/20 12:43:44;;;;;;;0.40;0.40;;;18.50;83.80;;;;;;4990724;28;20042;-64
2023/10/20 12:46:12;;;;;;;0.38;0.38;;;18.50;84.00;;;;;;4990513;28;20120;-63
2023/10/20 12:48:39;;;;;;;0.75;0.40;;;18.40;84.10;;;;;;4991095;28;20046;-64
2023/10/20 12:51:12;;;;;;;0.73;0.40;;;18.40;84.10;;;;;;4990370;28;20041;-63
2023/10/20 12:53:38;;;;;;;1.98;0.40;;;18.40;83.60;;;;;;4990606;28;20489;-64
2023/10/20 12:56:05;;;;;;;0.77;0.40;;;18.40;83.70;;;;;;4991223;28;20046;-63
2023/10/20 12:58:31;;;;;;;0.30;0.30;;;18.30;83.50;;;;;;4991485;28;20486;-63
2023/10/20 13:00:57;;;;;;;0.75;0.50;;;18.30;83.50;;;;;;4990604;28;20114;-64
2023/10/20 13:03:23;;;;;;;0.75;0.40;;;18.30;83.60;;;;;;4990741;28;20034;-64
2023/10/20 13:05:48;;;;;;;2.95;0.50;;;18.20;83.60;;;;;;4991082;28;20042;-63
2023/10/20 13:08:14;;;;;;;0.50;0.40;;;18.30;83.50;;;;;;4992358;28;20365;-64